createdAt,value
2019-06-07T20:23:36.385Z,4.80
2019-06-07T20:26:06.940Z,4.30
2019-06-07T20:28:37.544Z,4.78
2019-06-07T20:31:08.315Z,5.00
2019-06-07T20:33:38.908Z,5.03
2019-06-07T20:36:09.457Z,5.00
2019-06-07T20:38:39.993Z,4.93
2019-06-07T20:41:10.543Z,4.80
2019-06-07T20:43:41.099Z,5.50
2019-06-07T20:46:11.692Z,4.67
2019-06-07T20:48:42.228Z,5.62
2019-06-07T20:51:12.724Z,5.05
2019-06-07T20:53:43.238Z,5.72
2019-06-07T20:56:13.750Z,5.20
2019-06-07T20:58:44.312Z,5.70
2019-06-07T21:01:14.858Z,5.47
2019-06-07T21:03:45.380Z,6.15
2019-06-07T21:06:15.879Z,6.63
2019-06-07T21:08:46.401Z,6.62
2019-06-07T21:11:16.897Z,6.75
2019-06-07T21:13:47.399Z,6.87
2019-06-07T21:16:17.961Z,5.92
2019-06-07T21:18:48.442Z,6.83
2019-06-07T21:21:19.049Z,5.83
2019-06-07T21:23:49.600Z,6.42
2019-06-07T21:26:20.120Z,7.30
2019-06-07T21:28:50.743Z,8.78
2019-06-07T21:31:21.333Z,9.88
2019-06-07T21:33:51.844Z,10.53
2019-06-07T21:36:22.336Z,12.65
2019-06-07T21:38:52.861Z,12.40
2019-06-07T21:41:23.357Z,12.93
2019-06-07T21:43:53.947Z,12.50
2019-06-07T21:46:24.444Z,13.20
2019-06-07T21:48:54.938Z,15.18
2019-06-07T21:51:25.465Z,16.40
2019-06-07T21:53:55.969Z,18.37
2019-06-07T21:56:26.453Z,17.03
2019-06-07T21:58:56.983Z,18.05
2019-06-07T22:01:30.010Z,17.80
2019-06-07T22:04:00.503Z,16.23
2019-06-07T22:06:31.005Z,18.60
2019-06-07T22:09:01.480Z,19.00
2019-06-07T22:11:31.270Z,17.98
2019-06-07T22:14:01.824Z,20.43
2019-06-07T22:16:32.304Z,19.93
2019-06-07T22:19:02.773Z,18.32
2019-06-07T22:21:33.294Z,16.80
2019-06-07T22:24:04.810Z,15.63
2019-06-07T22:26:35.388Z,14.65
2019-06-07T22:29:06.297Z,13.15
2019-06-07T22:31:36.862Z,12.43
2019-06-07T22:34:08.668Z,13.00
2019-06-07T22:36:39.265Z,12.30
2019-06-07T22:39:09.765Z,12.25
2019-06-07T22:41:40.317Z,13.22
2019-06-07T22:44:10.943Z,13.60
2019-06-07T22:46:41.428Z,14.07
2019-06-07T22:49:13.231Z,14.65
2019-06-07T22:51:43.829Z,13.67
2019-06-07T22:54:14.325Z,14.73
2019-06-07T22:56:58.814Z,15.98
2019-06-07T22:59:29.296Z,15.90
2019-06-07T23:02:00.075Z,16.27
2019-06-07T23:04:30.595Z,14.95
2019-06-07T23:07:01.099Z,16.70
2019-06-07T23:09:31.584Z,17.67
2019-06-07T23:12:02.126Z,18.05
2019-06-07T23:14:32.641Z,16.90
2019-06-07T23:17:03.167Z,15.32
2019-06-07T23:19:33.689Z,16.70
2019-06-07T23:22:04.302Z,16.30
2019-06-07T23:24:34.838Z,15.08
2019-06-07T23:27:05.419Z,15.10
2019-06-07T23:29:35.958Z,14.83
2019-06-07T23:32:06.481Z,14.20
2019-06-07T23:34:37.027Z,14.75
2019-06-07T23:37:07.614Z,14.25
2019-06-07T23:39:38.281Z,13.60
2019-06-07T23:42:08.873Z,12.77
2019-06-07T23:44:39.373Z,14.35
2019-06-07T23:47:11.980Z,15.75
2019-06-07T23:49:42.146Z,17.65
2019-06-07T23:52:13.848Z,17.10
2019-06-07T23:54:44.496Z,16.65
2019-06-07T23:57:16.014Z,16.93
2019-06-07T23:59:46.634Z,15.88
